createdAt,value
2023-01-05T00:01:56.361Z,5.30
2023-01-05T00:05:01.858Z,5.39
2023-01-05T00:08:08.728Z,5.44
2023-01-05T00:11:34.104Z,5.37
2023-01-05T00:14:56.123Z,5.32
2023-01-05T00:18:20.349Z,5.24
2023-01-05T00:21:42.578Z,5.39
2023-01-05T00:24:47.938Z,5.44
2023-01-05T00:27:58.317Z,5.33
2023-01-05T00:31:04.285Z,5.37
2023-01-05T00:34:13.375Z,5.30
2023-01-05T00:37:20.277Z,5.42
2023-01-05T00:40:26.583Z,5.50
2023-01-05T00:43:32.173Z,5.59
2023-01-05T00:46:38.423Z,5.69
2023-01-05T00:49:46.995Z,5.80
2023-01-05T00:52:53.775Z,5.59
2023-01-05T00:56:00.527Z,5.73
2023-01-05T00:59:07.636Z,5.79
2023-01-05T01:02:13.989Z,5.86
2023-01-05T01:05:23.618Z,5.74
2023-01-05T01:08:29.973Z,5.79
2023-01-05T01:11:36.745Z,5.83
2023-01-05T01:14:42.737Z,5.87
2023-01-05T01:17:49.084Z,5.88
2023-01-05T01:20:57.275Z,5.93
2023-01-05T01:24:04.516Z,5.96
2023-01-05T01:27:09.900Z,5.98
2023-01-05T01:30:16.393Z,6.04
2023-01-05T01:33:22.786Z,6.06
2023-01-05T01:36:31.760Z,6.09
2023-01-05T01:39:37.702Z,6.10
2023-01-05T01:42:47.865Z,6.13
2023-01-05T01:45:53.363Z,6.16
2023-01-05T01:49:08.674Z,6.18
2023-01-05T01:52:17.772Z,6.18
2023-01-05T01:55:25.129Z,6.13
2023-01-05T01:58:35.593Z,6.10
2023-01-05T02:01:42.467Z,6.13
2023-01-05T02:04:49.555Z,6.18
2023-01-05T02:07:58.983Z,6.21
2023-01-05T02:11:33.614Z,6.28
2023-01-05T02:15:00.347Z,6.33
2023-01-05T02:18:32.170Z,6.38
2023-01-05T02:21:58.544Z,6.46
2023-01-05T02:25:44.458Z,6.50
2023-01-05T02:29:42.958Z,6.47
2023-01-05T02:33:06.632Z,6.51
2023-01-05T02:36:28.959Z,6.55
2023-01-05T02:39:52.262Z,6.61
2023-01-05T02:43:01.092Z,6.59
2023-01-05T02:46:07.730Z,6.63
2023-01-05T02:49:20.925Z,6.61
2023-01-05T02:52:30.553Z,6.64
2023-01-05T02:55:48.362Z,6.50
2023-01-05T02:59:01.396Z,6.51
2023-01-05T03:02:16.760Z,6.47
2023-01-05T03:05:35.767Z,6.40
2023-01-05T03:08:54.389Z,6.22
2023-01-05T03:12:32.166Z,6.04
2023-01-05T03:15:43.920Z,6.01
2023-01-05T03:19:12.103Z,6.18
2023-01-05T03:22:42.856Z,6.17
2023-01-05T03:26:10.327Z,6.12
2023-01-05T03:29:32.225Z,5.98
2023-01-05T03:33:05.235Z,5.99
2023-01-05T03:36:19.408Z,6.09
2023-01-05T03:39:33.152Z,6.04
2023-01-05T03:42:42.672Z,6.00
2023-01-05T03:45:56.363Z,5.91
2023-01-05T03:49:05.248Z,6.01
2023-01-05T03:52:11.540Z,5.90
2023-01-05T03:55:22.645Z,5.99
2023-01-05T03:58:31.677Z,5.91
2023-01-05T04:01:37.181Z,5.91
2023-01-05T04:04:43.745Z,5.97
2023-01-05T04:07:49.812Z,5.97
2023-01-05T04:10:59.751Z,5.92
2023-01-05T04:14:05.275Z,5.91
2023-01-05T04:17:13.476Z,5.87
2023-01-05T04:20:19.214Z,5.85
2023-01-05T04:23:25.463Z,5.72
2023-01-05T04:26:35.999Z,5.77
2023-01-05T04:29:42.477Z,5.61
2023-01-05T04:32:47.884Z,5.39
2023-01-05T04:35:56.685Z,5.36
2023-01-05T04:39:05.909Z,5.44
2023-01-05T04:42:18.086Z,5.40
2023-01-05T04:45:28.101Z,5.38
2023-01-05T04:48:35.317Z,5.28
2023-01-05T04:51:42.296Z,5.24
2023-01-05T04:54:49.209Z,5.27
2023-01-05T04:57:57.743Z,5.28
2023-01-05T05:01:04.148Z,5.27
2023-01-05T05:04:12.143Z,5.26
2023-01-05T05:07:18.587Z,5.28
2023-01-05T05:10:24.281Z,5.25
2023-01-05T05:13:33.910Z,5.30
2023-01-05T05:16:40.862Z,5.28
2023-01-05T05:19:48.421Z,5.24
2023-01-05T05:22:53.936Z,5.24
2023-01-05T05:26:00.999Z,5.26
2023-01-05T05:29:09.686Z,5.35
2023-01-05T05:32:15.921Z,5.39
2023-01-05T05:35:21.575Z,5.35
2023-01-05T05:38:27.996Z,5.40
2023-01-05T05:41:33.412Z,5.41
2023-01-05T05:44:43.954Z,5.34
2023-01-05T05:47:49.563Z,5.28
2023-01-05T05:50:56.025Z,5.35
2023-01-05T05:54:01.441Z,5.28
2023-01-05T05:57:07.857Z,5.25
2023-01-05T06:00:18.433Z,5.30
2023-01-05T06:03:24.669Z,5.25
2023-01-05T06:06:30.051Z,5.27
2023-01-05T06:09:36.317Z,5.21
2023-01-05T06:12:42.150Z,5.23
2023-01-05T06:15:52.649Z,5.22
2023-01-05T06:18:58.114Z,5.38
2023-01-05T06:22:04.522Z,5.38
2023-01-05T06:25:11.189Z,5.40
2023-01-05T06:28:20.378Z,5.39
2023-01-05T06:31:29.021Z,5.26
2023-01-05T06:34:35.339Z,5.17
2023-01-05T06:37:42.553Z,5.16
2023-01-05T06:40:50.740Z,4.76
2023-01-05T06:43:56.111Z,4.90
2023-01-05T06:47:05.682Z,4.71
2023-01-05T06:50:12.256Z,4.62
2023-01-05T06:53:18.577Z,4.39
2023-01-05T06:56:23.928Z,4.32
2023-01-05T06:59:31.002Z,4.33
2023-01-05T07:02:39.540Z,4.38
2023-01-05T07:05:45.959Z,4.24
2023-01-05T07:08:51.422Z,4.22
2023-01-05T07:11:57.724Z,4.19
2023-01-05T07:15:03.245Z,4.06
2023-01-05T07:18:12.416Z,4.09
2023-01-05T07:21:17.866Z,4.05
2023-01-05T07:24:24.154Z,4.20
2023-01-05T07:27:29.759Z,4.06
2023-01-05T07:30:36.225Z,3.97
2023-01-05T07:33:44.359Z,3.92
2023-01-05T07:36:51.471Z,3.92
2023-01-05T07:39:57.146Z,3.84
2023-01-05T07:43:03.545Z,4.02
2023-01-05T07:46:09.227Z,4.01
2023-01-05T07:49:18.966Z,3.93
2023-01-05T07:52:24.364Z,3.80
2023-01-05T07:55:30.831Z,3.79
2023-01-05T07:58:38.006Z,4.07
2023-01-05T08:01:44.440Z,4.06
2023-01-05T08:04:52.826Z,4.09
2023-01-05T08:07:59.593Z,4.07
2023-01-05T08:11:08.599Z,4.14
2023-01-05T08:14:14.854Z,4.07
2023-01-05T08:17:20.275Z,4.16
2023-01-05T08:20:29.324Z,4.20
2023-01-05T08:23:36.203Z,4.19
2023-01-05T08:26:42.528Z,4.21
2023-01-05T08:29:47.903Z,4.33
2023-01-05T08:32:54.139Z,4.40
2023-01-05T08:36:02.747Z,4.36
2023-01-05T08:39:09.769Z,4.49
2023-01-05T08:42:15.170Z,4.42
2023-01-05T08:45:23.038Z,4.45
2023-01-05T08:48:28.620Z,4.52
2023-01-05T08:51:39.082Z,4.62
2023-01-05T08:54:44.587Z,4.52
2023-01-05T08:57:50.889Z,4.54
2023-01-05T09:00:56.570Z,4.54
2023-01-05T09:04:02.961Z,4.50
2023-01-05T09:07:11.225Z,4.57
2023-01-05T09:10:17.443Z,4.59
2023-01-05T09:13:22.942Z,4.77
2023-01-05T09:17:05.287Z,4.68
2023-01-05T09:19:57.577Z,4.81
2023-01-05T09:23:06.718Z,4.89
2023-01-05T09:26:18.897Z,4.80
2023-01-05T09:29:25.499Z,5.03
2023-01-05T09:32:30.888Z,5.07
2023-01-05T09:35:37.137Z,4.97
2023-01-05T09:38:47.224Z,5.16
2023-01-05T09:41:59.948Z,5.25
2023-01-05T09:45:10.252Z,5.24
2023-01-05T09:48:20.994Z,5.26
2023-01-05T09:51:28.487Z,5.25
2023-01-05T09:54:38.003Z,5.42
2023-01-05T09:57:45.121Z,5.47
2023-01-05T10:01:10.807Z,5.53
2023-01-05T10:04:28.405Z,5.47
2023-01-05T10:07:48.952Z,5.50
2023-01-05T10:11:24.245Z,5.67
2023-01-05T10:14:48.477Z,5.75
2023-01-05T10:17:53.963Z,5.73
2023-01-05T10:21:19.817Z,5.53
2023-01-05T10:24:48.710Z,5.94
2023-01-05T10:28:22.593Z,5.87
2023-01-05T10:31:50.070Z,5.82
2023-01-05T10:35:09.084Z,5.81
2023-01-05T10:38:38.436Z,5.84
2023-01-05T10:42:03.264Z,4.78
2023-01-05T10:45:17.089Z,5.82
2023-01-05T10:48:38.653Z,5.95
2023-01-05T10:51:48.949Z,6.11
2023-01-05T10:55:03.677Z,6.12
2023-01-05T10:58:25.212Z,6.14
2023-01-05T11:01:35.008Z,6.16
2023-01-05T11:04:40.905Z,6.35
2023-01-05T11:07:54.102Z,6.45
2023-01-05T11:11:04.383Z,6.38
2023-01-05T11:14:19.812Z,6.32
2023-01-05T11:17:32.196Z,6.10
2023-01-05T11:20:38.482Z,6.30
2023-01-05T11:23:46.879Z,6.26
2023-01-05T11:26:55.989Z,6.20
2023-01-05T11:30:25.686Z,6.15
2023-01-05T11:33:40.591Z,6.17
2023-01-05T11:36:55.984Z,6.26
2023-01-05T11:40:05.952Z,5.82
2023-01-05T11:43:36.084Z,6.08
2023-01-05T11:46:47.643Z,6.09
2023-01-05T11:50:09.440Z,6.18
2023-01-05T11:53:38.803Z,5.94
2023-01-05T11:56:44.236Z,6.01
2023-01-05T11:59:51.176Z,6.16
2023-01-05T12:03:32.511Z,6.29
2023-01-05T12:07:07.736Z,6.08
2023-01-05T12:11:01.575Z,6.30
2023-01-05T12:14:38.273Z,6.16
2023-01-05T12:18:03.817Z,6.18
2023-01-05T12:21:26.416Z,6.23
2023-01-05T12:25:06.385Z,6.13
2023-01-05T12:28:45.555Z,6.31
2023-01-05T12:34:00.467Z,6.14
2023-01-05T12:36:27.276Z,6.11
2023-01-05T12:40:25.547Z,6.23
2023-01-05T12:43:54.522Z,6.29
2023-01-05T12:47:27.523Z,6.48
2023-01-05T12:50:44.858Z,6.47
2023-01-05T12:54:02.808Z,6.64
2023-01-05T12:57:21.792Z,6.61
2023-01-05T13:00:34.609Z,6.61
2023-01-05T13:03:54.412Z,6.60
2023-01-05T13:07:05.407Z,6.69
2023-01-05T13:10:24.142Z,6.21
2023-01-05T13:13:41.302Z,5.90
2023-01-05T13:16:58.732Z,5.72
2023-01-05T13:20:21.208Z,5.44
2023-01-05T13:23:34.505Z,5.19
2023-01-05T13:26:40.827Z,4.85
2023-01-05T13:29:59.614Z,4.64
2023-01-05T13:33:45.269Z,4.38
2023-01-05T13:37:39.478Z,4.14
2023-01-05T13:41:21.116Z,3.79
2023-01-05T13:45:02.547Z,3.50
2023-01-05T13:49:02.945Z,3.33
2023-01-05T13:52:31.410Z,3.13
2023-01-05T13:55:48.461Z,3.23
2023-01-05T13:59:05.548Z,3.34
2023-01-05T14:02:34.679Z,3.36
2023-01-05T14:05:54.932Z,3.35
2023-01-05T14:09:08.268Z,3.30
2023-01-05T14:12:44.614Z,3.36
2023-01-05T14:15:50.114Z,3.37
2023-01-05T14:19:17.021Z,3.34
2023-01-05T14:22:38.492Z,3.44
2023-01-05T14:25:52.985Z,3.53
2023-01-05T14:28:58.499Z,3.51
2023-01-05T14:32:11.190Z,3.42
2023-01-05T14:35:37.422Z,2.20
2023-01-05T14:38:52.713Z,3.31
2023-01-05T14:42:08.370Z,3.32
2023-01-05T14:45:32.762Z,3.26
2023-01-05T14:48:44.397Z,3.41
2023-01-05T14:52:01.068Z,3.56
2023-01-05T14:55:37.289Z,3.52
2023-01-05T14:59:02.725Z,3.56
2023-01-05T15:02:25.020Z,3.61
2023-01-05T15:05:35.875Z,3.68
2023-01-05T15:09:32.267Z,3.72
2023-01-05T15:13:25.892Z,3.86
2023-01-05T15:17:18.830Z,3.88
2023-01-05T15:21:11.817Z,3.88
2023-01-05T15:25:49.374Z,3.93
2023-01-05T15:30:02.871Z,4.15
2023-01-05T15:33:21.039Z,3.90
2023-01-05T15:36:34.506Z,3.93
2023-01-05T15:39:52.691Z,3.81
2023-01-05T15:43:05.488Z,3.90
2023-01-05T15:46:13.101Z,4.10
2023-01-05T15:49:30.364Z,4.13
2023-01-05T15:52:40.972Z,4.12
2023-01-05T15:55:52.330Z,4.20
2023-01-05T15:58:58.045Z,4.33
2023-01-05T16:02:05.204Z,4.42
2023-01-05T16:05:18.508Z,4.50
2023-01-05T16:08:25.147Z,4.60
2023-01-05T16:11:40.866Z,4.56
2023-01-05T16:14:50.528Z,4.66
2023-01-05T16:18:01.016Z,4.67
2023-01-05T16:21:23.803Z,4.50
2023-01-05T16:24:40.329Z,4.41
2023-01-05T16:27:58.762Z,4.26
2023-01-05T16:31:16.361Z,4.04
2023-01-05T16:34:27.824Z,3.55
2023-01-05T16:37:33.930Z,3.47
2023-01-05T16:40:58.466Z,3.35
2023-01-05T16:44:07.776Z,3.31
2023-01-05T16:47:14.173Z,3.24
2023-01-05T16:50:57.438Z,3.17
2023-01-05T16:54:20.768Z,3.26
2023-01-05T16:57:45.584Z,3.23
2023-01-05T17:00:54.860Z,3.28
2023-01-05T17:04:00.302Z,3.26
2023-01-05T17:07:06.897Z,3.41
2023-01-05T17:10:26.240Z,3.35
2023-01-05T17:13:43.273Z,3.31
2023-01-05T17:16:51.436Z,3.41
2023-01-05T17:19:57.749Z,3.51
2023-01-05T17:23:03.291Z,3.54
2023-01-05T17:26:14.590Z,3.54
2023-01-05T17:29:24.773Z,3.59
2023-01-05T17:32:33.812Z,3.72
2023-01-05T17:35:39.757Z,3.53
2023-01-05T17:38:47.336Z,3.59
2023-01-05T17:41:53.572Z,3.68
2023-01-05T17:44:59.872Z,3.65
2023-01-05T17:48:08.372Z,3.77
2023-01-05T17:51:14.693Z,3.78
2023-01-05T17:54:20.041Z,3.84
2023-01-05T17:57:26.719Z,3.73
2023-01-05T18:00:39.902Z,3.76
2023-01-05T18:03:49.085Z,3.63
2023-01-05T18:06:54.531Z,3.66
2023-01-05T18:10:01.183Z,3.75
2023-01-05T18:16:16.154Z,3.78
2023-01-05T18:19:24.409Z,3.67
2023-01-05T18:25:43.078Z,3.76
2023-01-05T18:28:49.338Z,3.75
2023-01-05T18:31:56.340Z,3.63
2023-01-05T18:35:09.297Z,3.63
2023-01-05T18:38:16.122Z,3.78
2023-01-05T18:41:27.394Z,3.71
2023-01-05T18:44:32.815Z,3.68
2023-01-05T18:47:39.222Z,3.67
2023-01-05T18:50:51.313Z,3.61
2023-01-05T18:53:57.923Z,3.55
2023-01-05T18:57:03.560Z,3.55
2023-01-05T19:00:12.126Z,3.44
2023-01-05T19:03:17.620Z,3.33
2023-01-05T19:06:29.136Z,3.27
2023-01-05T19:09:34.709Z,3.29
2023-01-05T19:12:41.022Z,2.99
2023-01-05T19:15:46.744Z,2.86
2023-01-05T19:18:57.279Z,2.75
2023-01-05T19:22:07.699Z,2.88
2023-01-05T19:25:14.014Z,2.96
2023-01-05T19:28:19.493Z,2.94
2023-01-05T19:31:28.023Z,2.89
2023-01-05T19:34:33.574Z,2.93
2023-01-05T19:37:42.881Z,2.97
2023-01-05T19:40:48.352Z,2.89
2023-01-05T19:43:57.787Z,2.84
2023-01-05T19:47:03.231Z,2.91
2023-01-05T19:50:12.615Z,2.76
2023-01-05T19:53:20.863Z,2.83
2023-01-05T19:56:31.487Z,2.84
2023-01-05T19:59:36.979Z,2.72
2023-01-05T20:02:43.823Z,2.68
2023-01-05T20:05:49.562Z,2.51
2023-01-05T20:09:02.901Z,2.50
2023-01-05T20:12:14.921Z,2.45
2023-01-05T20:15:22.165Z,2.44
2023-01-05T20:18:27.915Z,2.38
2023-01-05T20:21:35.411Z,2.35
2023-01-05T20:24:44.173Z,2.29
2023-01-05T20:27:50.555Z,2.29
2023-01-05T20:30:56.241Z,2.23
2023-01-05T20:34:07.337Z,1.97
2023-01-05T20:37:14.656Z,1.95
2023-01-05T20:40:23.934Z,1.93
2023-01-05T20:43:32.159Z,1.86
2023-01-05T20:46:44.833Z,1.78
2023-01-05T20:49:51.273Z,1.79
2023-01-05T20:52:58.923Z,1.84
2023-01-05T20:56:12.776Z,1.93
2023-01-05T20:59:23.123Z,1.94
2023-01-05T21:02:29.016Z,2.04
2023-01-05T21:05:35.761Z,2.08
2023-01-05T21:08:41.738Z,2.15
2023-01-05T21:11:50.997Z,2.16
2023-01-05T21:14:56.616Z,2.19
2023-01-05T21:18:02.978Z,2.16
2023-01-05T21:21:09.439Z,2.13
2023-01-05T21:24:17.985Z,1.70
2023-01-05T21:27:26.362Z,2.01
2023-01-05T21:30:33.207Z,2.07
2023-01-05T21:33:40.531Z,2.04
2023-01-05T21:36:49.184Z,2.04
2023-01-05T21:39:54.716Z,2.11
2023-01-05T21:43:04.615Z,2.08
2023-01-05T21:46:13.562Z,2.11
2023-01-05T21:49:22.796Z,1.99
2023-01-05T21:52:44.064Z,1.94
2023-01-05T21:56:07.126Z,1.95
2023-01-05T21:59:15.507Z,1.96
2023-01-05T22:02:22.189Z,2.07
2023-01-05T22:05:27.970Z,2.00
2023-01-05T22:08:34.531Z,1.92
2023-01-05T22:11:40.433Z,1.80
2023-01-05T22:14:49.877Z,1.78
2023-01-05T22:17:55.825Z,1.86
2023-01-05T22:21:05.547Z,1.99
2023-01-05T22:24:12.428Z,2.10
2023-01-05T22:27:18.821Z,2.05
2023-01-05T22:30:27.427Z,2.16
2023-01-05T22:33:34.928Z,2.17
2023-01-05T22:36:40.476Z,2.07
2023-01-05T22:39:47.014Z,2.05
2023-01-05T22:42:52.438Z,2.08
2023-01-05T22:46:09.351Z,2.13
2023-01-05T22:49:26.163Z,2.05
2023-01-05T22:52:34.564Z,2.01
2023-01-05T22:55:40.051Z,2.05
2023-01-05T22:58:46.665Z,1.92
2023-01-05T23:01:55.187Z,1.97
2023-01-05T23:05:03.818Z,1.87
2023-01-05T23:08:10.306Z,1.87
2023-01-05T23:11:19.776Z,2.11
2023-01-05T23:14:25.274Z,2.18
2023-01-05T23:17:34.279Z,2.08
2023-01-05T23:20:39.663Z,2.03
2023-01-05T23:23:46.962Z,2.11
2023-01-05T23:26:52.440Z,1.94
2023-01-05T23:29:58.701Z,2.00
2023-01-05T23:33:07.085Z,2.05
2023-01-05T23:36:15.871Z,2.00
2023-01-05T23:39:21.332Z,1.93
2023-01-05T23:42:43.508Z,1.93
2023-01-05T23:45:50.030Z,1.90
2023-01-05T23:48:59.100Z,1.87
2023-01-05T23:52:04.516Z,1.70
2023-01-05T23:55:12.194Z,1.80
2023-01-05T23:58:17.637Z,1.82
